createdAt,value
2018-09-06T00:01:43.757Z,13.34
2018-09-06T00:04:12.032Z,13.29
2018-09-06T00:06:40.370Z,13.17
2018-09-06T00:09:09.458Z,13.03
2018-09-06T00:11:37.785Z,12.82
2018-09-06T00:14:06.102Z,12.77
2018-09-06T00:16:34.424Z,12.80
2018-09-06T00:19:02.690Z,12.83
2018-09-06T00:21:30.990Z,12.89
2018-09-06T00:23:59.242Z,13.09
2018-09-06T00:26:27.551Z,13.12
2018-09-06T00:28:55.902Z,12.81
2018-09-06T00:31:24.137Z,12.62
2018-09-06T00:33:52.433Z,12.68
2018-09-06T00:36:20.691Z,12.69
2018-09-06T00:38:48.983Z,12.78
2018-09-06T00:41:17.250Z,12.92
2018-09-06T00:43:45.581Z,13.05
2018-09-06T00:46:13.877Z,12.65
2018-09-06T00:48:42.183Z,12.45
2018-09-06T00:51:10.449Z,12.44
2018-09-06T00:53:38.709Z,12.38
2018-09-06T00:56:07.014Z,12.50
2018-09-06T00:58:35.298Z,12.70
2018-09-06T01:01:03.637Z,12.71
2018-09-06T01:03:31.937Z,12.45
2018-09-06T01:06:00.220Z,12.52
2018-09-06T01:08:28.475Z,12.44
2018-09-06T01:10:56.812Z,12.50
2018-09-06T01:13:25.113Z,12.45
2018-09-06T01:15:53.391Z,12.56
2018-09-06T01:18:21.726Z,12.63
2018-09-06T01:20:50.064Z,12.64
2018-09-06T01:23:18.340Z,12.63
2018-09-06T01:25:48.920Z,12.53
2018-09-06T01:28:18.505Z,12.23
2018-09-06T01:30:46.781Z,12.29
2018-09-06T01:33:15.051Z,12.34
2018-09-06T01:35:47.515Z,12.53
2018-09-06T01:38:15.958Z,12.66
2018-09-06T01:40:44.288Z,12.55
2018-09-06T01:43:12.555Z,12.11
2018-09-06T01:45:40.807Z,12.15
2018-09-06T01:48:09.084Z,12.27
2018-09-06T01:50:37.341Z,12.35
2018-09-06T01:53:05.741Z,12.36
2018-09-06T01:55:34.035Z,12.13
2018-09-06T01:58:02.313Z,12.19
2018-09-06T02:00:30.712Z,12.49
2018-09-06T02:02:58.981Z,12.61
2018-09-06T02:05:35.500Z,12.67
2018-09-06T02:08:04.674Z,12.55
2018-09-06T02:10:33.040Z,12.47
2018-09-06T02:13:01.444Z,12.70
2018-09-06T02:15:29.771Z,12.76
2018-09-06T02:17:58.119Z,12.61
2018-09-06T02:20:26.431Z,12.71
2018-09-06T02:22:55.102Z,12.87
2018-09-06T02:25:23.404Z,12.94
2018-09-06T02:27:51.764Z,12.83
2018-09-06T02:30:20.038Z,12.64
2018-09-06T02:32:48.392Z,12.64
2018-09-06T02:35:16.706Z,12.88
2018-09-06T02:37:44.974Z,12.97
2018-09-06T02:40:18.661Z,12.85
2018-09-06T02:42:46.948Z,12.59
2018-09-06T02:45:15.283Z,12.51
2018-09-06T02:47:48.655Z,12.77
2018-09-06T02:50:22.133Z,12.85
2018-09-06T02:52:50.428Z,12.84
2018-09-06T02:55:18.754Z,12.84
2018-09-06T02:57:47.206Z,13.03
2018-09-06T03:00:15.459Z,12.91
2018-09-06T03:02:43.773Z,12.62
2018-09-06T03:05:12.082Z,12.26
2018-09-06T03:07:40.372Z,12.55
2018-09-06T03:10:08.758Z,12.67
2018-09-06T03:12:37.039Z,12.74
2018-09-06T03:15:05.304Z,12.72
2018-09-06T03:17:33.601Z,12.68
2018-09-06T03:20:01.880Z,12.60
2018-09-06T03:22:30.166Z,12.71
2018-09-06T03:24:58.437Z,12.72
2018-09-06T03:27:26.712Z,12.71
2018-09-06T03:29:54.971Z,12.86
2018-09-06T03:32:23.357Z,12.87
2018-09-06T03:34:51.644Z,12.72
2018-09-06T03:37:19.930Z,12.29
2018-09-06T03:39:48.222Z,12.09
2018-09-06T03:42:16.520Z,12.07
2018-09-06T03:44:44.767Z,12.12
2018-09-06T03:47:13.063Z,12.20
2018-09-06T03:49:41.298Z,12.23
2018-09-06T03:52:10.544Z,12.35
2018-09-06T03:54:38.781Z,12.34
2018-09-06T03:57:07.498Z,12.36
2018-09-06T03:59:35.969Z,12.22
2018-09-06T04:02:04.347Z,12.18
2018-09-06T04:04:32.602Z,12.22
2018-09-06T04:07:01.016Z,12.24
2018-09-06T04:09:29.253Z,12.23
2018-09-06T04:11:57.555Z,12.28
2018-09-06T04:14:25.874Z,12.01
2018-09-06T04:16:54.141Z,12.05
2018-09-06T04:19:22.454Z,11.80
2018-09-06T04:21:50.764Z,11.66
2018-09-06T04:24:19.204Z,11.78
2018-09-06T04:26:47.499Z,12.01
2018-09-06T04:29:15.870Z,12.01
2018-09-06T04:31:44.170Z,11.98
2018-09-06T04:34:12.583Z,12.07
2018-09-06T04:36:41.163Z,11.94
2018-09-06T04:39:11.218Z,11.70
2018-09-06T04:41:39.623Z,11.70
2018-09-06T04:44:07.976Z,11.72
2018-09-06T04:46:36.580Z,11.75
2018-09-06T04:49:05.096Z,11.78
2018-09-06T04:51:33.423Z,11.95
2018-09-06T04:54:01.774Z,11.79
2018-09-06T04:56:33.166Z,11.62
2018-09-06T04:59:01.500Z,11.53
2018-09-06T05:01:29.915Z,11.70
2018-09-06T05:03:58.370Z,11.97
2018-09-06T05:06:26.755Z,11.98
2018-09-06T05:08:55.036Z,11.92
2018-09-06T05:11:23.396Z,11.76
2018-09-06T05:13:51.882Z,12.08
2018-09-06T05:16:20.619Z,12.16
2018-09-06T05:18:48.992Z,12.23
2018-09-06T05:21:18.345Z,12.27
2018-09-06T05:23:47.577Z,12.37
2018-09-06T05:26:15.936Z,12.41
2018-09-06T05:28:44.255Z,12.25
2018-09-06T05:31:12.567Z,12.25
2018-09-06T05:33:40.967Z,12.36
2018-09-06T05:36:09.451Z,12.31
2018-09-06T05:38:38.003Z,12.52
2018-09-06T05:41:06.745Z,12.59
2018-09-06T05:43:35.072Z,12.61
2018-09-06T05:46:03.422Z,12.52
2018-09-06T05:48:31.771Z,12.51
2018-09-06T05:51:00.068Z,12.64
2018-09-06T05:53:28.437Z,12.85
2018-09-06T05:55:56.827Z,13.05
2018-09-06T05:58:25.266Z,13.11
2018-09-06T06:00:53.634Z,13.31
2018-09-06T06:03:22.127Z,13.37
2018-09-06T06:05:50.437Z,13.48
2018-09-06T06:08:30.082Z,13.64
2018-09-06T06:10:58.427Z,13.72
2018-09-06T06:13:26.824Z,13.84
2018-09-06T06:15:55.328Z,13.97
2018-09-06T06:18:23.617Z,14.12
2018-09-06T06:20:52.110Z,14.29
2018-09-06T06:23:20.429Z,14.47
2018-09-06T06:25:48.840Z,14.62
2018-09-06T06:28:17.213Z,14.83
2018-09-06T06:30:45.530Z,15.00
2018-09-06T06:33:14.027Z,15.15
2018-09-06T06:35:42.331Z,15.29
2018-09-06T06:38:10.760Z,15.47
2018-09-06T06:40:39.088Z,15.62
2018-09-06T06:43:08.262Z,15.78
2018-09-06T06:45:37.009Z,15.92
2018-09-06T06:48:05.529Z,16.13
2018-09-06T06:50:33.912Z,16.23
2018-09-06T06:53:02.323Z,16.41
2018-09-06T06:55:30.789Z,16.41
2018-09-06T06:57:59.099Z,16.52
2018-09-06T07:00:27.434Z,16.63
2018-09-06T07:02:55.738Z,16.74
2018-09-06T07:05:24.063Z,16.82
2018-09-06T07:07:52.362Z,16.93
2018-09-06T07:10:20.694Z,17.04
2018-09-06T07:12:48.982Z,17.07
2018-09-06T07:15:17.316Z,17.12
2018-09-06T07:17:45.620Z,17.21
2018-09-06T07:20:13.921Z,17.20
2018-09-06T07:22:42.293Z,17.25
2018-09-06T07:25:10.651Z,17.36
2018-09-06T07:27:38.932Z,17.53
2018-09-06T07:30:07.356Z,17.63
2018-09-06T07:32:35.822Z,17.76
2018-09-06T07:35:04.397Z,17.83
2018-09-06T07:37:33.788Z,17.86
2018-09-06T07:40:02.233Z,17.91
2018-09-06T07:42:30.522Z,18.03
2018-09-06T07:44:58.888Z,18.15
2018-09-06T07:47:27.242Z,18.25
2018-09-06T07:49:55.628Z,18.28
2018-09-06T07:52:23.965Z,18.27
2018-09-06T07:54:52.575Z,18.39
2018-09-06T07:57:20.876Z,18.42
2018-09-06T07:59:49.394Z,18.47
2018-09-06T08:02:17.715Z,18.62
2018-09-06T08:04:46.043Z,18.78
2018-09-06T08:07:14.363Z,18.76
2018-09-06T08:09:42.655Z,18.80
2018-09-06T08:12:10.977Z,19.02
2018-09-06T08:14:39.314Z,19.05
2018-09-06T08:17:07.927Z,18.97
2018-09-06T08:19:36.379Z,19.07
2018-09-06T08:22:04.702Z,19.12
2018-09-06T08:24:33.023Z,19.29
2018-09-06T08:27:01.325Z,19.22
2018-09-06T08:29:29.650Z,19.28
2018-09-06T08:31:57.935Z,19.27
2018-09-06T08:34:26.239Z,19.38
2018-09-06T08:36:54.607Z,19.42
2018-09-06T08:39:22.883Z,19.50
2018-09-06T08:41:51.251Z,19.68
2018-09-06T08:44:19.617Z,19.86
2018-09-06T08:46:48.118Z,19.85
2018-09-06T08:49:16.407Z,20.06
2018-09-06T08:51:44.774Z,20.08
2018-09-06T08:54:13.053Z,20.16
2018-09-06T08:56:41.389Z,20.19
2018-09-06T08:59:09.786Z,20.15
2018-09-06T09:01:38.458Z,20.31
2018-09-06T09:04:07.370Z,20.36
2018-09-06T09:06:35.905Z,20.58
2018-09-06T09:09:05.785Z,20.65
2018-09-06T09:11:34.262Z,20.71
2018-09-06T09:14:02.535Z,20.82
2018-09-06T09:16:30.867Z,20.88
2018-09-06T09:18:59.180Z,20.98
2018-09-06T09:21:27.550Z,21.06
2018-09-06T09:23:55.825Z,21.01
2018-09-06T09:26:24.150Z,21.06
2018-09-06T09:28:52.466Z,21.15
2018-09-06T09:31:20.780Z,21.35
2018-09-06T09:33:49.257Z,21.38
2018-09-06T09:36:17.588Z,21.57
2018-09-06T09:38:45.905Z,21.72
2018-09-06T09:41:14.294Z,21.74
2018-09-06T09:43:42.930Z,21.95
2018-09-06T09:48:39.119Z,22.16
2018-09-06T09:51:07.441Z,22.15
2018-09-06T09:53:35.729Z,22.27
2018-09-06T09:56:04.576Z,22.23
2018-09-06T09:58:32.936Z,22.35
2018-09-06T10:01:01.438Z,22.47
2018-09-06T10:03:35.040Z,22.46
2018-09-06T10:06:08.806Z,22.51
2018-09-06T10:08:42.592Z,22.52
2018-09-06T10:11:11.295Z,22.61
2018-09-06T10:13:39.618Z,22.79
2018-09-06T10:16:08.173Z,22.73
2018-09-06T10:18:36.500Z,22.62
2018-09-06T10:21:04.971Z,22.58
2018-09-06T10:23:33.403Z,22.55
2018-09-06T10:26:01.745Z,22.67
2018-09-06T10:28:30.103Z,22.96
2018-09-06T10:30:58.483Z,22.97
2018-09-06T10:33:26.837Z,22.95
2018-09-06T10:35:55.245Z,22.90
2018-09-06T10:38:23.595Z,23.11
2018-09-06T10:40:51.931Z,23.24
2018-09-06T10:43:20.265Z,23.34
2018-09-06T10:45:48.558Z,23.45
2018-09-06T10:48:17.178Z,23.66
2018-09-06T10:50:45.587Z,23.64
2018-09-06T10:53:14.263Z,23.78
2018-09-06T10:55:42.570Z,23.84
2018-09-06T10:58:10.929Z,23.92
2018-09-06T11:00:39.303Z,24.05
2018-09-06T11:03:07.851Z,23.93
2018-09-06T11:05:36.180Z,23.73
2018-09-06T11:08:04.592Z,24.09
2018-09-06T11:10:32.845Z,24.21
2018-09-06T11:13:01.159Z,24.32
2018-09-06T11:15:29.869Z,24.35
2018-09-06T11:17:58.459Z,24.29
2018-09-06T11:20:26.744Z,24.22
2018-09-06T11:22:55.061Z,24.32
2018-09-06T11:25:23.306Z,23.91
2018-09-06T11:27:53.305Z,24.07
2018-09-06T11:30:23.788Z,24.05
2018-09-06T11:32:52.235Z,24.17
2018-09-06T11:35:20.577Z,24.18
2018-09-06T11:37:49.071Z,24.20
2018-09-06T11:40:17.401Z,24.19
2018-09-06T11:42:45.724Z,24.21
2018-09-06T11:45:14.014Z,23.92
2018-09-06T11:47:42.332Z,23.66
2018-09-06T11:50:10.636Z,23.65
2018-09-06T11:52:38.930Z,23.71
2018-09-06T11:55:07.290Z,23.68
2018-09-06T11:57:35.584Z,23.62
2018-09-06T12:00:04.017Z,23.69
2018-09-06T12:02:32.320Z,23.59
2018-09-06T12:05:00.670Z,23.64
2018-09-06T12:07:28.980Z,23.41
2018-09-06T12:09:57.385Z,23.50
2018-09-06T12:12:25.707Z,23.37
2018-09-06T12:14:54.050Z,23.56
2018-09-06T12:17:22.476Z,23.45
2018-09-06T12:19:51.018Z,23.70
2018-09-06T12:22:19.283Z,23.74
2018-09-06T12:24:47.593Z,23.87
2018-09-06T12:27:15.844Z,23.97
2018-09-06T12:29:44.259Z,24.29
2018-09-06T12:32:12.647Z,24.52
2018-09-06T12:34:41.109Z,24.65
2018-09-06T12:37:13.067Z,24.68
2018-09-06T12:39:42.628Z,24.53
2018-09-06T12:42:11.559Z,24.71
2018-09-06T12:44:40.022Z,24.23
2018-09-06T12:47:08.377Z,24.33
2018-09-06T12:49:36.816Z,24.34
2018-09-06T12:52:05.094Z,24.43
2018-09-06T12:54:33.850Z,24.72
2018-09-06T12:57:02.153Z,24.88
2018-09-06T12:59:30.549Z,24.95
2018-09-06T13:02:00.074Z,25.09
2018-09-06T13:04:28.437Z,25.20
2018-09-06T13:06:56.938Z,25.27
2018-09-06T13:09:25.232Z,25.14
2018-09-06T13:11:54.000Z,24.96
2018-09-06T13:14:22.553Z,25.01
2018-09-06T13:16:51.001Z,25.15
2018-09-06T13:19:19.435Z,25.29
2018-09-06T13:21:47.708Z,25.39
2018-09-06T13:24:16.062Z,25.63
2018-09-06T13:26:44.356Z,25.41
2018-09-06T13:29:12.669Z,25.27
2018-09-06T13:31:41.057Z,25.37
2018-09-06T13:34:09.384Z,25.02
2018-09-06T13:36:37.699Z,25.04
2018-09-06T13:39:07.677Z,24.95
2018-09-06T13:41:42.328Z,24.77
2018-09-06T13:44:10.609Z,24.60
2018-09-06T13:46:39.520Z,24.40
2018-09-06T13:49:07.809Z,24.35
2018-09-06T13:51:36.109Z,24.27
2018-09-06T13:54:04.359Z,24.33
2018-09-06T13:56:32.760Z,24.15
2018-09-06T13:59:01.009Z,24.02
2018-09-06T14:01:29.380Z,23.86
2018-09-06T14:03:57.702Z,23.91
2018-09-06T14:06:26.069Z,23.94
2018-09-06T14:08:54.404Z,24.07
2018-09-06T14:11:22.756Z,23.98
2018-09-06T14:13:51.028Z,23.94
2018-09-06T14:16:19.336Z,23.89
2018-09-06T14:18:47.701Z,23.81
2018-09-06T14:21:16.844Z,23.75
2018-09-06T14:23:46.152Z,23.69
2018-09-06T14:26:35.374Z,23.64
2018-09-06T14:31:48.472Z,23.43
2018-09-06T14:34:16.767Z,23.38
2018-09-06T14:36:45.170Z,23.35
2018-09-06T14:39:13.492Z,23.04
2018-09-06T14:41:41.940Z,23.01
2018-09-06T14:44:10.467Z,22.85
2018-09-06T14:46:47.589Z,22.85
2018-09-06T14:49:15.967Z,22.66
2018-09-06T14:51:44.295Z,22.53
2018-09-06T14:54:12.568Z,22.19
2018-09-06T14:56:40.877Z,22.01
2018-09-06T14:59:09.266Z,21.26
2018-09-06T15:01:37.784Z,21.00
2018-09-06T15:04:06.188Z,20.97
2018-09-06T15:06:35.151Z,20.68
2018-09-06T15:09:05.408Z,20.38
2018-09-06T15:11:33.790Z,20.00
2018-09-06T15:14:02.600Z,19.33
2018-09-06T15:16:30.995Z,18.82
2018-09-06T15:19:01.700Z,18.81
2018-09-06T15:21:36.952Z,18.70
2018-09-06T15:24:05.476Z,18.31
2018-09-06T15:26:34.009Z,18.22
2018-09-06T15:29:05.162Z,18.26
2018-09-06T15:31:34.495Z,18.17
2018-09-06T15:34:02.962Z,18.24
2018-09-06T15:36:31.451Z,18.18
2018-09-06T15:39:00.033Z,18.27
2018-09-06T15:41:28.979Z,18.37
2018-09-06T15:43:57.466Z,18.31
2018-09-06T15:46:25.815Z,17.92
2018-09-06T15:48:57.133Z,18.03
2018-09-06T15:51:26.273Z,18.09
2018-09-06T15:53:54.957Z,17.87
2018-09-06T15:56:23.259Z,17.81
2018-09-06T15:58:51.759Z,17.82
2018-09-06T16:01:20.815Z,17.77
2018-09-06T16:03:50.457Z,17.64
2018-09-06T16:06:18.902Z,17.58
2018-09-06T16:08:47.296Z,17.50
2018-09-06T16:11:16.104Z,17.66
2018-09-06T16:13:44.562Z,17.49
2018-09-06T16:16:13.422Z,17.39
2018-09-06T16:18:42.023Z,17.53
2018-09-06T16:21:11.547Z,17.58
2018-09-06T16:23:40.018Z,17.50
2018-09-06T16:26:08.603Z,17.60
2018-09-06T16:28:36.934Z,17.56
2018-09-06T16:31:05.320Z,17.48
2018-09-06T16:33:34.280Z,17.63
2018-09-06T16:36:03.022Z,17.67
2018-09-06T16:38:31.909Z,17.65
2018-09-06T16:41:00.669Z,17.68
2018-09-06T16:43:29.235Z,17.42
2018-09-06T16:45:58.009Z,17.72
2018-09-06T16:48:26.504Z,17.74
2018-09-06T16:50:55.057Z,17.47
2018-09-06T16:53:24.464Z,17.61
2018-09-06T16:55:53.239Z,17.61
2018-09-06T16:58:21.761Z,17.54
2018-09-06T17:00:50.404Z,17.40
2018-09-06T17:03:18.823Z,17.63
2018-09-06T17:05:47.721Z,17.55
2018-09-06T17:08:16.112Z,17.58
2018-09-06T17:10:44.495Z,17.61
2018-09-06T17:13:12.950Z,17.58
2018-09-06T17:15:41.488Z,17.69
2018-09-06T17:18:09.887Z,17.76
2018-09-06T17:20:38.240Z,17.78
2018-09-06T17:23:07.064Z,17.64
2018-09-06T17:25:35.402Z,17.69
2018-09-06T17:28:04.351Z,17.61
2018-09-06T17:30:32.968Z,17.72
2018-09-06T17:33:01.449Z,17.66
2018-09-06T17:35:29.971Z,17.66
2018-09-06T17:37:58.432Z,17.71
2018-09-06T17:40:26.926Z,17.66
2018-09-06T17:42:55.762Z,17.59
2018-09-06T17:45:24.178Z,17.67
2018-09-06T17:47:52.909Z,17.65
2018-09-06T17:50:21.681Z,17.61
2018-09-06T17:52:50.135Z,17.62
2018-09-06T17:55:18.595Z,17.57
2018-09-06T17:57:46.953Z,17.51
2018-09-06T18:00:15.939Z,17.30
2018-09-06T18:02:44.389Z,17.18
2018-09-06T18:05:12.873Z,17.15
2018-09-06T18:07:41.254Z,17.37
2018-09-06T18:10:09.700Z,17.09
2018-09-06T18:12:38.251Z,17.05
2018-09-06T18:15:07.932Z,17.06
2018-09-06T18:17:36.402Z,16.99
2018-09-06T18:20:05.214Z,17.07
2018-09-06T18:22:33.687Z,17.19
2018-09-06T18:25:02.704Z,17.07
2018-09-06T18:27:31.635Z,17.16
2018-09-06T18:30:00.221Z,17.09
2018-09-06T18:32:28.707Z,17.00
2018-09-06T18:34:57.163Z,16.99
2018-09-06T18:37:25.733Z,16.97
2018-09-06T18:39:54.045Z,17.00
2018-09-06T18:42:23.681Z,16.92
2018-09-06T18:44:52.152Z,17.00
2018-09-06T18:47:20.746Z,17.05
2018-09-06T18:49:49.187Z,17.06
2018-09-06T18:52:17.702Z,17.01
2018-09-06T18:54:46.411Z,16.98
2018-09-06T18:57:14.795Z,16.94
2018-09-06T18:59:43.929Z,16.87
2018-09-06T19:02:12.686Z,16.90
2018-09-06T19:04:41.202Z,16.98
2018-09-06T19:07:09.908Z,16.89
2018-09-06T19:09:38.562Z,16.89
2018-09-06T19:12:07.567Z,16.99
2018-09-06T19:14:36.187Z,16.96
2018-09-06T19:17:04.796Z,17.09
2018-09-06T19:19:33.586Z,17.03
2018-09-06T19:22:02.634Z,17.01
2018-09-06T19:24:31.351Z,16.88
2018-09-06T19:27:00.197Z,16.82
2018-09-06T19:29:31.360Z,16.92
2018-09-06T19:32:00.034Z,16.94
2018-09-06T19:34:28.523Z,16.94
2018-09-06T19:36:57.264Z,16.96
2018-09-06T19:39:26.670Z,16.95
2018-09-06T19:41:55.027Z,16.99
2018-09-06T19:44:23.375Z,16.95
2018-09-06T19:46:52.552Z,16.90
2018-09-06T19:49:20.887Z,16.80
2018-09-06T19:51:50.177Z,16.67
2018-09-06T19:54:18.722Z,16.64
2018-09-06T19:56:47.223Z,16.57
2018-09-06T19:59:15.519Z,16.62
2018-09-06T20:01:44.019Z,16.66
2018-09-06T20:04:12.366Z,16.76
2018-09-06T20:06:42.094Z,16.83
2018-09-06T20:09:10.873Z,16.87
2018-09-06T20:11:40.104Z,16.91
2018-09-06T20:14:08.480Z,16.99
2018-09-06T20:16:36.817Z,17.00
2018-09-06T20:19:05.294Z,16.84
2018-09-06T20:21:33.653Z,16.76
2018-09-06T20:24:02.065Z,16.75
2018-09-06T20:26:32.063Z,16.86
2018-09-06T20:29:00.415Z,16.78
2018-09-06T20:31:28.790Z,16.78
2018-09-06T20:33:57.157Z,16.72
2018-09-06T20:36:25.667Z,16.79
2018-09-06T20:39:16.597Z,16.72
2018-09-06T20:41:45.088Z,16.79
2018-09-06T20:44:13.364Z,16.75
2018-09-06T20:46:41.703Z,16.70
2018-09-06T20:49:16.826Z,16.80
2018-09-06T20:51:45.239Z,16.76
2018-09-06T20:54:13.712Z,16.79
2018-09-06T20:56:42.171Z,16.69
2018-09-06T20:59:10.616Z,16.55
2018-09-06T21:01:39.130Z,16.64
2018-09-06T21:04:07.675Z,16.66
2018-09-06T21:06:36.036Z,16.67
2018-09-06T21:09:05.691Z,16.67
2018-09-06T21:11:34.152Z,16.57
2018-09-06T21:14:02.524Z,16.44
2018-09-06T21:16:31.149Z,16.21
2018-09-06T21:18:59.717Z,16.19
2018-09-06T21:21:28.240Z,16.22
2018-09-06T21:23:56.678Z,16.32
2018-09-06T21:26:25.365Z,16.43
2018-09-06T21:28:53.698Z,16.35
2018-09-06T21:31:22.098Z,16.25
2018-09-06T21:33:50.450Z,16.32
2018-09-06T21:36:18.894Z,16.35
2018-09-06T21:38:47.281Z,16.39
2018-09-06T21:41:15.676Z,16.42
2018-09-06T21:43:44.100Z,16.49
2018-09-06T21:46:12.431Z,16.60
2018-09-06T21:48:40.784Z,16.58
2018-09-06T21:51:09.184Z,16.56
2018-09-06T21:53:37.527Z,16.60
2018-09-06T21:56:05.857Z,16.47
2018-09-06T21:58:34.241Z,16.42
2018-09-06T22:01:02.647Z,16.20
2018-09-06T22:03:36.304Z,16.33
2018-09-06T22:06:04.709Z,16.18
2018-09-06T22:08:48.966Z,16.23
2018-09-06T22:11:17.396Z,16.38
2018-09-06T22:13:45.786Z,16.44
2018-09-06T22:16:14.217Z,16.47
2018-09-06T22:18:42.604Z,16.53
2018-09-06T22:21:11.001Z,16.63
2018-09-06T22:23:39.384Z,16.63
2018-09-06T22:26:07.825Z,16.57
2018-09-06T22:28:36.187Z,16.68
2018-09-06T22:31:04.948Z,16.61
2018-09-06T22:33:33.345Z,16.54
2018-09-06T22:36:01.678Z,16.62
2018-09-06T22:38:30.067Z,16.46
2018-09-06T22:40:58.415Z,16.44
2018-09-06T22:43:26.796Z,16.43
2018-09-06T22:45:55.202Z,16.45
2018-09-06T22:48:23.566Z,16.51
2018-09-06T22:50:51.935Z,16.36
2018-09-06T22:53:20.278Z,16.36
2018-09-06T22:55:48.688Z,16.29
2018-09-06T22:58:17.045Z,16.34
2018-09-06T23:00:45.474Z,16.32
2018-09-06T23:03:19.089Z,16.45
2018-09-06T23:05:47.541Z,16.42
2018-09-06T23:08:15.883Z,16.44
2018-09-06T23:10:44.212Z,16.35
2018-09-06T23:13:12.596Z,16.30
2018-09-06T23:15:40.961Z,16.31
2018-09-06T23:18:09.515Z,16.38
2018-09-06T23:20:37.890Z,16.27
2018-09-06T23:23:06.266Z,16.27
2018-09-06T23:25:34.653Z,16.31
2018-09-06T23:28:03.012Z,16.31
2018-09-06T23:30:31.493Z,16.28
2018-09-06T23:32:59.852Z,16.21
2018-09-06T23:35:28.169Z,16.38
2018-09-06T23:37:56.523Z,16.27
2018-09-06T23:40:24.860Z,16.19
2018-09-06T23:42:53.336Z,16.20
2018-09-06T23:45:21.743Z,16.13
2018-09-06T23:47:50.170Z,16.18
2018-09-06T23:50:18.555Z,16.14
2018-09-06T23:52:46.966Z,16.06
2018-09-06T23:55:15.336Z,16.07
2018-09-06T23:57:43.725Z,16.17
